Terminal Aerodrome Forecast
Issued by NWS

Home | Current Version | Previous Version | Text Only | Print | Product List | Glossary On
Versions: 1 2 3 4 5 6 7 8 9 10 11 12 13 14 15
954
FTUS43 KOAX 241531 AAB
TAFSNY
TAF AMD
KSNY 241531Z 2416/2512 36015G22KT P6SM SCT010 BKN020 OVC030
      TEMPO 2416/2418 1SM -SN BR
     FM241800 34023G32KT 5SM -SHSN OVC015
     FM250600 34021G27KT P6SM VCSH OVC025=

USA.gov is the U.S. government's official web portal to all federal, state and local government web resources and services.